NCAR-RAP Real-Time Weather Data

Output produced by METARs form (06 May 2021  16:54 UTC)
found at http://weather.rap.ucar.edu/surface/
 
KLVK 061553Z 25003KT 10SM CLR 15/07 A3004 RMK AO2 SLP170 T01500072
KLVK 061453Z 29006KT 10SM CLR 13/08 A3004 RMK AO2 SLP170 T01280078 53017
KLVK 061353Z AUTO 29006KT 10SM CLR 11/08 A3002 RMK AO2 SLP161 T01060078
KLVK 061253Z AUTO 30008KT 10SM CLR 10/08 A3000 RMK AO2 SLP156 T01000078
KLVK 061153Z AUTO 32005KT 10SM CLR 10/07 A2999 RMK AO2 SLP152 T01000072 10122 20094 58001
KLVK 061053Z AUTO 29009KT 10SM CLR 09/08 A3000 RMK AO2 SLP153 T00940078
KLVK 060953Z AUTO 30008KT 10SM CLR 10/08 A3000 RMK AO2 SLP154 T01000078
KLVK 060853Z AUTO 30009KT 10SM CLR 11/08 A3000 RMK AO2 SLP153 T01060083 51005
KLVK 060753Z AUTO 29008KT 10SM CLR 11/08 A2999 RMK AO2 SLP153 T01060083 403390106
KLVK 060653Z AUTO 29008KT 10SM CLR 12/08 A2999 RMK AO2 SLP151 T01170078
KLVK 060553Z AUTO 31007KT 10SM CLR 12/08 A2998 RMK AO2 SLP149 T01220078 10300 20122 51030
KLVK 060453Z 29004KT 10SM CLR 14/07 A2997 RMK AO2 SLP145 T01390072